sensor_id;sensor_type;location;lat;lon;timestamp;P1;durP1;ratioP1;P2;durP2;ratioP2
85955;SDS011;76522;51.420;5.386;2024-02-28T00:00:49;51.38;;;26.77;;
85955;SDS011;76522;51.420;5.386;2024-02-28T00:03:16;50.83;;;27.50;;
85955;SDS011;76522;51.420;5.386;2024-02-28T00:05:42;51.30;;;27.20;;
85955;SDS011;76522;51.420;5.386;2024-02-28T00:08:08;52.47;;;27.63;;
85955;SDS011;76522;51.420;5.386;2024-02-28T00:10:33;48.33;;;26.10;;
85955;SDS011;76522;51.420;5.386;2024-02-28T00:12:59;49.28;;;26.50;;
85955;SDS011;76522;51.420;5.386;2024-02-28T00:15:25;47.45;;;25.60;;
85955;SDS011;76522;51.420;5.386;2024-02-28T00:17:54;47.38;;;25.38;;
85955;SDS011;76522;51.420;5.386;2024-02-28T00:20:20;47.90;;;26.48;;
85955;SDS011;76522;51.420;5.386;2024-02-28T00:22:45;52.22;;;26.45;;
85955;SDS011;76522;51.420;5.386;2024-02-28T00:25:11;51.17;;;27.13;;
85955;SDS011;76522;51.420;5.386;2024-02-28T00:27:38;50.30;;;26.27;;
85955;SDS011;76522;51.420;5.386;2024-02-28T00:30:04;53.95;;;28.42;;
85955;SDS011;76522;51.420;5.386;2024-02-28T00:32:31;48.92;;;26.77;;
85955;SDS011;76522;51.420;5.386;2024-02-28T00:34:57;48.67;;;26.15;;
85955;SDS011;76522;51.420;5.386;2024-02-28T00:37:23;46.50;;;26.38;;
85955;SDS011;76522;51.420;5.386;2024-02-28T00:39:49;50.55;;;26.92;;
85955;SDS011;76522;51.420;5.386;2024-02-28T00:42:15;47.45;;;25.95;;
85955;SDS011;76522;51.420;5.386;2024-02-28T00:44:41;50.10;;;26.48;;
85955;SDS011;76522;51.420;5.386;2024-02-28T00:47:08;52.40;;;25.02;;
85955;SDS011;76522;51.420;5.386;2024-02-28T00:49:34;49.78;;;26.10;;
85955;SDS011;76522;51.420;5.386;2024-02-28T00:52:00;52.65;;;28.67;;
85955;SDS011;76522;51.420;5.386;2024-02-28T00:54:26;49.22;;;27.08;;
85955;SDS011;76522;51.420;5.386;2024-02-28T00:56:52;46.75;;;26.08;;
85955;SDS011;76522;51.420;5.386;2024-02-28T00:59:18;44.95;;;25.80;;
85955;SDS011;76522;51.420;5.386;2024-02-28T01:01:43;44.47;;;24.02;;
85955;SDS011;76522;51.420;5.386;2024-02-28T01:04:09;46.70;;;25.30;;
85955;SDS011;76522;51.420;5.386;2024-02-28T01:06:35;48.20;;;24.67;;
85955;SDS011;76522;51.420;5.386;2024-02-28T01:09:00;41.05;;;23.65;;
85955;SDS011;76522;51.420;5.386;2024-02-28T01:11:26;47.75;;;23.88;;
85955;SDS011;76522;51.420;5.386;2024-02-28T01:13:52;43.22;;;23.67;;
85955;SDS011;76522;51.420;5.386;2024-02-28T01:16:17;44.60;;;24.77;;
85955;SDS011;76522;51.420;5.386;2024-02-28T01:18:43;43.55;;;23.77;;
85955;SDS011;76522;51.420;5.386;2024-02-28T01:21:09;43.72;;;22.90;;
85955;SDS011;76522;51.420;5.386;2024-02-28T01:23:34;47.50;;;24.42;;
85955;SDS011;76522;51.420;5.386;2024-02-28T01:26:00;42.40;;;23.50;;
85955;SDS011;76522;51.420;5.386;2024-02-28T01:28:29;38.80;;;23.60;;
85955;SDS011;76522;51.420;5.386;2024-02-28T01:30:54;37.83;;;22.08;;
85955;SDS011;76522;51.420;5.386;2024-02-28T01:33:20;40.15;;;22.30;;
85955;SDS011;76522;51.420;5.386;2024-02-28T01:35:46;39.30;;;22.38;;
85955;SDS011;76522;51.420;5.386;2024-02-28T01:38:11;41.13;;;23.02;;
85955;SDS011;76522;51.420;5.386;2024-02-28T01:40:37;43.35;;;22.98;;
85955;SDS011;76522;51.420;5.386;2024-02-28T01:43:11;43.97;;;24.15;;
85955;SDS011;76522;51.420;5.386;2024-02-28T01:45:37;37.58;;;22.10;;
85955;SDS011;76522;51.420;5.386;2024-02-28T01:48:03;43.50;;;23.33;;
85955;SDS011;76522;51.420;5.386;2024-02-28T01:50:32;40.63;;;22.40;;
85955;SDS011;76522;51.420;5.386;2024-02-28T01:52:59;37.08;;;21.55;;
85955;SDS011;76522;51.420;5.386;2024-02-28T01:55:25;39.85;;;22.55;;
85955;SDS011;76522;51.420;5.386;2024-02-28T01:57:51;39.90;;;22.33;;
85955;SDS011;76522;51.420;5.386;2024-02-28T02:00:18;40.25;;;22.02;;
85955;SDS011;76522;51.420;5.386;2024-02-28T02:02:44;41.25;;;23.33;;
85955;SDS011;76522;51.420;5.386;2024-02-28T02:05:10;38.90;;;23.50;;
85955;SDS011;76522;51.420;5.386;2024-02-28T02:07:36;44.50;;;24.88;;
85955;SDS011;76522;51.420;5.386;2024-02-28T02:10:01;43.63;;;23.98;;
85955;SDS011;76522;51.420;5.386;2024-02-28T02:12:27;42.05;;;22.73;;
85955;SDS011;76522;51.420;5.386;2024-02-28T02:14:53;41.70;;;22.80;;
85955;SDS011;76522;51.420;5.386;2024-02-28T02:17:19;39.08;;;22.63;;
85955;SDS011;76522;51.420;5.386;2024-02-28T02:19:44;38.47;;;22.13;;
85955;SDS011;76522;51.420;5.386;2024-02-28T02:22:10;41.72;;;23.85;;
85955;SDS011;76522;51.420;5.386;2024-02-28T02:24:39;38.08;;;22.23;;
85955;SDS011;76522;51.420;5.386;2024-02-28T02:27:05;43.10;;;24.10;;
85955;SDS011;76522;51.420;5.386;2024-02-28T02:29:31;45.42;;;24.73;;
85955;SDS011;76522;51.420;5.386;2024-02-28T02:31:57;38.80;;;23.50;;
85955;SDS011;76522;51.420;5.386;2024-02-28T02:34:22;41.55;;;21.77;;
85955;SDS011;76522;51.420;5.386;2024-02-28T02:36:48;43.03;;;22.23;;
85955;SDS011;76522;51.420;5.386;2024-02-28T02:39:14;40.30;;;22.70;;
85955;SDS011;76522;51.420;5.386;2024-02-28T02:41:40;38.20;;;21.63;;
85955;SDS011;76522;51.420;5.386;2024-02-28T02:44:06;38.60;;;21.48;;
85955;SDS011;76522;51.420;5.386;2024-02-28T02:46:32;39.53;;;21.77;;
85955;SDS011;76522;51.420;5.386;2024-02-28T02:48:58;37.05;;;22.13;;
85955;SDS011;76522;51.420;5.386;2024-02-28T02:51:24;41.47;;;21.80;;
85955;SDS011;76522;51.420;5.386;2024-02-28T02:53:50;36.13;;;21.33;;
85955;SDS011;76522;51.420;5.386;2024-02-28T02:56:16;35.83;;;22.88;;
85955;SDS011;76522;51.420;5.386;2024-02-28T02:58:42;35.10;;;21.40;;
85955;SDS011;76522;51.420;5.386;2024-02-28T03:01:08;33.42;;;20.40;;
85955;SDS011;76522;51.420;5.386;2024-02-28T03:03:34;35.95;;;21.38;;
85955;SDS011;76522;51.420;5.386;2024-02-28T03:05:59;37.40;;;19.95;;
85955;SDS011;76522;51.420;5.386;2024-02-28T03:08:25;36.03;;;21.08;;
85955;SDS011;76522;51.420;5.386;2024-02-28T03:10:51;36.47;;;21.75;;
85955;SDS011;76522;51.420;5.386;2024-02-28T03:13:17;35.72;;;20.52;;
85955;SDS011;76522;51.420;5.386;2024-02-28T03:15:43;35.00;;;20.40;;
85955;SDS011;76522;51.420;5.386;2024-02-28T03:18:09;33.38;;;20.52;;
85955;SDS011;76522;51.420;5.386;2024-02-28T03:20:35;34.20;;;20.05;;
85955;SDS011;76522;51.420;5.386;2024-02-28T03:23:03;35.67;;;19.50;;
85955;SDS011;76522;51.420;5.386;2024-02-28T03:25:31;32.88;;;21.00;;
85955;SDS011;76522;51.420;5.386;2024-02-28T03:27:57;32.70;;;20.02;;
85955;SDS011;76522;51.420;5.386;2024-02-28T03:30:24;34.25;;;20.15;;
85955;SDS011;76522;51.420;5.386;2024-02-28T03:32:50;34.47;;;20.25;;
85955;SDS011;76522;51.420;5.386;2024-02-28T03:35:15;32.80;;;20.35;;
85955;SDS011;76522;51.420;5.386;2024-02-28T03:37:41;31.30;;;20.00;;
85955;SDS011;76522;51.420;5.386;2024-02-28T03:40:07;32.47;;;19.85;;
85955;SDS011;76522;51.420;5.386;2024-02-28T03:42:33;34.88;;;20.27;;
85955;SDS011;76522;51.420;5.386;2024-02-28T03:44:59;34.78;;;18.83;;
85955;SDS011;76522;51.420;5.386;2024-02-28T03:47:24;37.47;;;21.20;;
85955;SDS011;76522;51.420;5.386;2024-02-28T03:49:50;36.70;;;19.88;;
85955;SDS011;76522;51.420;5.386;2024-02-28T03:52:16;32.50;;;19.50;;
85955;SDS011;76522;51.420;5.386;2024-02-28T03:54:42;31.08;;;18.33;;
85955;SDS011;76522;51.420;5.386;2024-02-28T03:57:08;31.58;;;19.48;;
85955;SDS011;76522;51.420;5.386;2024-02-28T03:59:34;30.48;;;18.33;;
85955;SDS011;76522;51.420;5.386;2024-02-28T04:02:00;33.47;;;19.60;;
85955;SDS011;76522;51.420;5.386;2024-02-28T04:04:25;32.08;;;19.83;;
85955;SDS011;76522;51.420;5.386;2024-02-28T04:06:51;32.80;;;19.25;;
85955;SDS011;76522;51.420;5.386;2024-02-28T04:09:17;31.92;;;18.55;;
85955;SDS011;76522;51.420;5.386;2024-02-28T04:11:43;31.20;;;18.77;;
85955;SDS011;76522;51.420;5.386;2024-02-28T04:14:08;29.67;;;18.42;;
85955;SDS011;76522;51.420;5.386;2024-02-28T04:16:34;34.10;;;20.88;;
85955;SDS011;76522;51.420;5.386;2024-02-28T04:19:05;33.08;;;20.83;;
85955;SDS011;76522;51.420;5.386;2024-02-28T04:21:31;30.08;;;18.98;;
85955;SDS011;76522;51.420;5.386;2024-02-28T04:23:56;33.85;;;20.52;;
85955;SDS011;76522;51.420;5.386;2024-02-28T04:26:23;32.85;;;20.63;;
85955;SDS011;76522;51.420;5.386;2024-02-28T04:28:49;37.75;;;21.60;;
85955;SDS011;76522;51.420;5.386;2024-02-28T04:31:14;33.58;;;20.58;;
85955;SDS011;76522;51.420;5.386;2024-02-28T04:33:40;35.03;;;21.23;;
85955;SDS011;76522;51.420;5.386;2024-02-28T04:36:06;36.75;;;21.95;;
85955;SDS011;76522;51.420;5.386;2024-02-28T04:38:32;35.17;;;20.52;;
85955;SDS011;76522;51.420;5.386;2024-02-28T04:40:57;34.10;;;21.85;;
85955;SDS011;76522;51.420;5.386;2024-02-28T04:43:23;41.00;;;21.40;;
85955;SDS011;76522;51.420;5.386;2024-02-28T04:45:49;36.58;;;22.70;;
85955;SDS011;76522;51.420;5.386;2024-02-28T04:48:14;44.55;;;23.08;;
85955;SDS011;76522;51.420;5.386;2024-02-28T04:50:40;39.15;;;22.27;;
85955;SDS011;76522;51.420;5.386;2024-02-28T04:53:06;43.92;;;23.45;;
85955;SDS011;76522;51.420;5.386;2024-02-28T04:55:31;39.13;;;23.42;;
85955;SDS011;76522;51.420;5.386;2024-02-28T04:57:57;46.03;;;22.52;;
85955;SDS011;76522;51.420;5.386;2024-02-28T05:00:23;39.53;;;21.40;;
85955;SDS011;76522;51.420;5.386;2024-02-28T05:02:48;45.72;;;23.58;;
85955;SDS011;76522;51.420;5.386;2024-02-28T05:05:14;39.30;;;22.50;;
85955;SDS011;76522;51.420;5.386;2024-02-28T05:07:40;39.40;;;21.92;;
85955;SDS011;76522;51.420;5.386;2024-02-28T05:10:05;45.25;;;23.52;;
85955;SDS011;76522;51.420;5.386;2024-02-28T05:12:32;40.78;;;22.80;;
85955;SDS011;76522;51.420;5.386;2024-02-28T05:14:57;43.28;;;21.55;;
85955;SDS011;76522;51.420;5.386;2024-02-28T05:17:23;47.00;;;23.00;;
85955;SDS011;76522;51.420;5.386;2024-02-28T05:19:49;40.50;;;21.83;;
85955;SDS011;76522;51.420;5.386;2024-02-28T05:22:14;40.75;;;23.00;;
85955;SDS011;76522;51.420;5.386;2024-02-28T05:24:40;46.08;;;23.27;;
85955;SDS011;76522;51.420;5.386;2024-02-28T05:27:08;41.50;;;23.05;;
85955;SDS011;76522;51.420;5.386;2024-02-28T05:29:34;40.25;;;22.55;;
85955;SDS011;76522;51.420;5.386;2024-02-28T05:32:00;46.25;;;24.08;;
85955;SDS011;76522;51.420;5.386;2024-02-28T05:34:26;43.35;;;24.48;;
85955;SDS011;76522;51.420;5.386;2024-02-28T05:36:51;45.97;;;22.75;;
85955;SDS011;76522;51.420;5.386;2024-02-28T05:39:17;41.47;;;22.05;;
85955;SDS011;76522;51.420;5.386;2024-02-28T05:41:43;41.95;;;23.52;;
85955;SDS011;76522;51.420;5.386;2024-02-28T05:44:08;40.88;;;21.88;;
85955;SDS011;76522;51.420;5.386;2024-02-28T05:46:34;39.83;;;22.15;;
85955;SDS011;76522;51.420;5.386;2024-02-28T05:49:01;38.42;;;21.88;;
85955;SDS011;76522;51.420;5.386;2024-02-28T05:51:28;40.00;;;22.73;;
85955;SDS011;76522;51.420;5.386;2024-02-28T05:53:53;40.35;;;23.42;;
85955;SDS011;76522;51.420;5.386;2024-02-28T05:56:19;40.30;;;24.05;;
85955;SDS011;76522;51.420;5.386;2024-02-28T05:58:46;39.40;;;20.67;;
85955;SDS011;76522;51.420;5.386;2024-02-28T06:01:16;39.92;;;22.30;;
85955;SDS011;76522;51.420;5.386;2024-02-28T06:03:44;37.92;;;21.75;;
85955;SDS011;76522;51.420;5.386;2024-02-28T06:06:11;38.50;;;21.95;;
85955;SDS011;76522;51.420;5.386;2024-02-28T06:08:38;41.13;;;23.42;;
85955;SDS011;76522;51.420;5.386;2024-02-28T06:11:05;37.90;;;23.00;;
85955;SDS011;76522;51.420;5.386;2024-02-28T06:13:31;37.17;;;23.20;;
85955;SDS011;76522;51.420;5.386;2024-02-28T06:15:57;46.60;;;22.92;;
85955;SDS011;76522;51.420;5.386;2024-02-28T06:18:23;38.50;;;23.08;;
85955;SDS011;76522;51.420;5.386;2024-02-28T06:20:54;38.03;;;23.10;;
85955;SDS011;76522;51.420;5.386;2024-02-28T06:23:21;36.05;;;21.73;;
85955;SDS011;76522;51.420;5.386;2024-02-28T06:25:50;37.22;;;22.10;;
85955;SDS011;76522;51.420;5.386;2024-02-28T06:28:15;38.25;;;22.33;;
85955;SDS011;76522;51.420;5.386;2024-02-28T06:30:44;45.25;;;24.23;;
85955;SDS011;76522;51.420;5.386;2024-02-28T06:33:13;36.95;;;22.15;;
85955;SDS011;76522;51.420;5.386;2024-02-28T06:35:39;38.25;;;22.33;;
85955;SDS011;76522;51.420;5.386;2024-02-28T06:38:05;38.42;;;22.52;;
85955;SDS011;76522;51.420;5.386;2024-02-28T06:40:32;35.22;;;22.15;;
85955;SDS011;76522;51.420;5.386;2024-02-28T06:42:58;40.38;;;23.75;;
85955;SDS011;76522;51.420;5.386;2024-02-28T06:45:23;40.13;;;22.15;;
85955;SDS011;76522;51.420;5.386;2024-02-28T06:47:49;38.67;;;20.73;;
85955;SDS011;76522;51.420;5.386;2024-02-28T06:50:16;38.65;;;20.90;;
85955;SDS011;76522;51.420;5.386;2024-02-28T06:52:42;35.63;;;22.05;;
85955;SDS011;76522;51.420;5.386;2024-02-28T06:55:07;38.95;;;24.25;;
85955;SDS011;76522;51.420;5.386;2024-02-28T06:57:36;39.15;;;24.52;;
85955;SDS011;76522;51.420;5.386;2024-02-28T07:00:06;39.80;;;24.52;;
85955;SDS011;76522;51.420;5.386;2024-02-28T07:02:43;35.78;;;23.15;;
85955;SDS011;76522;51.420;5.386;2024-02-28T07:05:09;34.42;;;19.88;;
85955;SDS011;76522;51.420;5.386;2024-02-28T07:07:35;36.70;;;21.65;;
85955;SDS011;76522;51.420;5.386;2024-02-28T07:10:04;36.95;;;21.35;;
85955;SDS011;76522;51.420;5.386;2024-02-28T07:12:30;32.13;;;17.40;;
85955;SDS011;76522;51.420;5.386;2024-02-28T07:14:56;37.15;;;21.02;;
85955;SDS011;76522;51.420;5.386;2024-02-28T07:17:22;30.05;;;18.65;;
85955;SDS011;76522;51.420;5.386;2024-02-28T07:19:48;40.28;;;21.70;;
85955;SDS011;76522;51.420;5.386;2024-02-28T07:22:13;33.25;;;18.73;;
85955;SDS011;76522;51.420;5.386;2024-02-28T07:24:39;33.33;;;19.33;;
85955;SDS011;76522;51.420;5.386;2024-02-28T07:27:05;33.10;;;17.95;;
85955;SDS011;76522;51.420;5.386;2024-02-28T07:29:31;32.88;;;19.15;;
85955;SDS011;76522;51.420;5.386;2024-02-28T07:31:56;32.95;;;19.75;;
85955;SDS011;76522;51.420;5.386;2024-02-28T07:34:22;33.88;;;20.23;;
85955;SDS011;76522;51.420;5.386;2024-02-28T07:36:48;34.78;;;21.17;;
85955;SDS011;76522;51.420;5.386;2024-02-28T07:39:14;34.45;;;20.70;;
85955;SDS011;76522;51.420;5.386;2024-02-28T07:41:39;38.58;;;23.10;;
85955;SDS011;76522;51.420;5.386;2024-02-28T07:44:06;39.35;;;20.98;;
85955;SDS011;76522;51.420;5.386;2024-02-28T07:46:33;32.97;;;19.65;;
85955;SDS011;76522;51.420;5.386;2024-02-28T07:48:59;40.72;;;23.95;;
85955;SDS011;76522;51.420;5.386;2024-02-28T07:51:26;32.20;;;19.67;;
85955;SDS011;76522;51.420;5.386;2024-02-28T07:53:52;33.40;;;18.80;;
85955;SDS011;76522;51.420;5.386;2024-02-28T07:56:18;37.58;;;20.73;;
85955;SDS011;76522;51.420;5.386;2024-02-28T07:58:46;34.35;;;21.05;;
85955;SDS011;76522;51.420;5.386;2024-02-28T08:01:12;36.92;;;19.92;;
85955;SDS011;76522;51.420;5.386;2024-02-28T08:03:38;35.53;;;20.58;;
85955;SDS011;76522;51.420;5.386;2024-02-28T08:06:04;37.35;;;19.80;;
85955;SDS011;76522;51.420;5.386;2024-02-28T08:08:30;31.83;;;17.95;;
85955;SDS011;76522;51.420;5.386;2024-02-28T08:10:55;31.10;;;18.13;;
85955;SDS011;76522;51.420;5.386;2024-02-28T08:13:21;34.72;;;19.85;;
85955;SDS011;76522;51.420;5.386;2024-02-28T08:15:47;32.17;;;18.65;;
85955;SDS011;76522;51.420;5.386;2024-02-28T08:18:12;36.05;;;21.33;;
85955;SDS011;76522;51.420;5.386;2024-02-28T08:20:38;32.15;;;18.75;;
85955;SDS011;76522;51.420;5.386;2024-02-28T08:23:04;32.75;;;17.48;;
85955;SDS011;76522;51.420;5.386;2024-02-28T08:25:31;33.17;;;20.65;;
85955;SDS011;76522;51.420;5.386;2024-02-28T08:27:57;32.15;;;17.48;;
85955;SDS011;76522;51.420;5.386;2024-02-28T08:30:22;34.15;;;20.38;;
85955;SDS011;76522;51.420;5.386;2024-02-28T08:32:48;38.55;;;22.40;;
85955;SDS011;76522;51.420;5.386;2024-02-28T08:35:14;30.95;;;19.23;;
85955;SDS011;76522;51.420;5.386;2024-02-28T08:37:40;36.80;;;22.38;;
85955;SDS011;76522;51.420;5.386;2024-02-28T08:40:06;36.53;;;21.17;;
85955;SDS011;76522;51.420;5.386;2024-02-28T08:42:32;34.92;;;21.88;;
85955;SDS011;76522;51.420;5.386;2024-02-28T08:44:58;30.70;;;19.13;;
85955;SDS011;76522;51.420;5.386;2024-02-28T08:47:25;33.85;;;20.60;;
85955;SDS011;76522;51.420;5.386;2024-02-28T08:49:52;34.10;;;19.85;;
85955;SDS011;76522;51.420;5.386;2024-02-28T08:52:18;36.03;;;21.65;;
85955;SDS011;76522;51.420;5.386;2024-02-28T08:54:45;35.15;;;18.98;;
85955;SDS011;76522;51.420;5.386;2024-02-28T08:57:11;32.25;;;20.20;;
85955;SDS011;76522;51.420;5.386;2024-02-28T08:59:36;30.30;;;18.02;;
85955;SDS011;76522;51.420;5.386;2024-02-28T09:02:02;24.80;;;14.23;;
85955;SDS011;76522;51.420;5.386;2024-02-28T09:04:28;35.88;;;21.23;;
85955;SDS011;76522;51.420;5.386;2024-02-28T09:06:54;33.25;;;19.10;;
85955;SDS011;76522;51.420;5.386;2024-02-28T09:09:20;36.53;;;19.70;;
85955;SDS011;76522;51.420;5.386;2024-02-28T09:11:46;33.05;;;18.52;;
85955;SDS011;76522;51.420;5.386;2024-02-28T09:14:11;33.00;;;18.40;;
85955;SDS011;76522;51.420;5.386;2024-02-28T09:16:37;37.75;;;18.55;;
85955;SDS011;76522;51.420;5.386;2024-02-28T09:19:03;37.30;;;18.98;;
85955;SDS011;76522;51.420;5.386;2024-02-28T09:21:30;32.10;;;17.63;;
85955;SDS011;76522;51.420;5.386;2024-02-28T09:23:55;35.40;;;20.10;;
85955;SDS011;76522;51.420;5.386;2024-02-28T09:26:21;35.85;;;17.88;;
85955;SDS011;76522;51.420;5.386;2024-02-28T09:28:47;34.20;;;17.67;;
85955;SDS011;76522;51.420;5.386;2024-02-28T09:31:12;28.77;;;18.67;;
85955;SDS011;76522;51.420;5.386;2024-02-28T09:33:40;35.25;;;18.52;;
85955;SDS011;76522;51.420;5.386;2024-02-28T09:36:06;34.20;;;14.98;;
85955;SDS011;76522;51.420;5.386;2024-02-28T09:38:32;29.55;;;17.00;;
85955;SDS011;76522;51.420;5.386;2024-02-28T09:41:00;44.33;;;18.73;;
85955;SDS011;76522;51.420;5.386;2024-02-28T09:43:29;31.85;;;15.23;;
85955;SDS011;76522;51.420;5.386;2024-02-28T09:45:59;36.17;;;16.05;;
85955;SDS011;76522;51.420;5.386;2024-02-28T09:48:28;36.92;;;20.10;;
85955;SDS011;76522;51.420;5.386;2024-02-28T09:50:55;40.10;;;17.98;;
85955;SDS011;76522;51.420;5.386;2024-02-28T09:53:31;38.33;;;18.55;;
85955;SDS011;76522;51.420;5.386;2024-02-28T09:55:57;46.85;;;19.42;;
85955;SDS011;76522;51.420;5.386;2024-02-28T09:58:23;40.95;;;18.80;;
85955;SDS011;76522;51.420;5.386;2024-02-28T10:00:51;38.95;;;19.55;;
85955;SDS011;76522;51.420;5.386;2024-02-28T10:03:21;43.55;;;19.10;;
85955;SDS011;76522;51.420;5.386;2024-02-28T10:05:49;44.90;;;19.45;;
85955;SDS011;76522;51.420;5.386;2024-02-28T10:08:15;42.60;;;18.15;;
85955;SDS011;76522;51.420;5.386;2024-02-28T10:10:47;54.58;;;23.55;;
85955;SDS011;76522;51.420;5.386;2024-02-28T10:13:13;35.90;;;18.80;;
85955;SDS011;76522;51.420;5.386;2024-02-28T10:15:41;37.28;;;18.17;;
85955;SDS011;76522;51.420;5.386;2024-02-28T10:18:07;60.92;;;24.33;;
85955;SDS011;76522;51.420;5.386;2024-02-28T10:20:32;43.13;;;18.55;;
85955;SDS011;76522;51.420;5.386;2024-02-28T10:22:59;53.20;;;20.42;;
85955;SDS011;76522;51.420;5.386;2024-02-28T10:25:24;46.67;;;21.20;;
85955;SDS011;76522;51.420;5.386;2024-02-28T10:27:51;46.72;;;20.10;;
85955;SDS011;76522;51.420;5.386;2024-02-28T10:30:18;51.17;;;20.08;;
85955;SDS011;76522;51.420;5.386;2024-02-28T10:32:50;55.45;;;20.45;;
85955;SDS011;76522;51.420;5.386;2024-02-28T10:35:16;40.17;;;19.77;;
85955;SDS011;76522;51.420;5.386;2024-02-28T10:37:50;49.60;;;20.58;;
85955;SDS011;76522;51.420;5.386;2024-02-28T10:40:17;51.70;;;19.58;;
85955;SDS011;76522;51.420;5.386;2024-02-28T10:42:43;46.95;;;20.08;;
85955;SDS011;76522;51.420;5.386;2024-02-28T10:45:12;38.08;;;18.00;;
85955;SDS011;76522;51.420;5.386;2024-02-28T10:47:41;43.55;;;19.95;;
85955;SDS011;76522;51.420;5.386;2024-02-28T10:50:07;38.88;;;18.70;;
85955;SDS011;76522;51.420;5.386;2024-02-28T10:52:33;46.40;;;20.02;;
85955;SDS011;76522;51.420;5.386;2024-02-28T10:54:59;36.63;;;19.38;;
85955;SDS011;76522;51.420;5.386;2024-02-28T10:57:26;36.92;;;19.55;;
85955;SDS011;76522;51.420;5.386;2024-02-28T10:59:54;40.95;;;19.88;;
85955;SDS011;76522;51.420;5.386;2024-02-28T11:02:20;37.20;;;17.17;;
85955;SDS011;76522;51.420;5.386;2024-02-28T11:04:50;31.90;;;14.68;;
85955;SDS011;76522;51.420;5.386;2024-02-28T11:07:20;36.92;;;19.02;;
85955;SDS011;76522;51.420;5.386;2024-02-28T11:09:47;37.30;;;16.60;;
85955;SDS011;76522;51.420;5.386;2024-02-28T11:12:25;34.30;;;16.40;;
85955;SDS011;76522;51.420;5.386;2024-02-28T11:15:02;38.03;;;18.85;;
85955;SDS011;76522;51.420;5.386;2024-02-28T11:17:32;34.05;;;16.50;;
85955;SDS011;76522;51.420;5.386;2024-02-28T11:19:58;21.88;;;10.65;;
85955;SDS011;76522;51.420;5.386;2024-02-28T11:22:27;32.85;;;15.52;;
85955;SDS011;76522;51.420;5.386;2024-02-28T11:24:54;29.77;;;12.68;;
85955;SDS011;76522;51.420;5.386;2024-02-28T11:27:20;28.52;;;13.43;;
85955;SDS011;76522;51.420;5.386;2024-02-28T11:29:46;32.08;;;14.65;;
85955;SDS011;76522;51.420;5.386;2024-02-28T11:32:12;26.10;;;12.98;;
85955;SDS011;76522;51.420;5.386;2024-02-28T11:34:39;28.40;;;13.05;;
85955;SDS011;76522;51.420;5.386;2024-02-28T11:37:09;26.20;;;11.52;;
85955;SDS011;76522;51.420;5.386;2024-02-28T11:39:35;23.63;;;12.20;;
85955;SDS011;76522;51.420;5.386;2024-02-28T11:42:14;25.67;;;13.45;;
85955;SDS011;76522;51.420;5.386;2024-02-28T11:44:41;29.48;;;13.32;;
85955;SDS011;76522;51.420;5.386;2024-02-28T11:47:10;24.52;;;13.25;;
85955;SDS011;76522;51.420;5.386;2024-02-28T11:49:39;21.48;;;13.15;;
85955;SDS011;76522;51.420;5.386;2024-02-28T11:52:05;25.17;;;15.05;;
85955;SDS011;76522;51.420;5.386;2024-02-28T11:54:31;24.55;;;11.68;;
85955;SDS011;76522;51.420;5.386;2024-02-28T11:56:57;26.73;;;15.07;;
85955;SDS011;76522;51.420;5.386;2024-02-28T11:59:23;30.45;;;14.82;;
85955;SDS011;76522;51.420;5.386;2024-02-28T12:01:49;24.80;;;14.23;;
85955;SDS011;76522;51.420;5.386;2024-02-28T12:04:16;27.20;;;15.63;;
85955;SDS011;76522;51.420;5.386;2024-02-28T12:06:42;24.83;;;13.55;;
85955;SDS011;76522;51.420;5.386;2024-02-28T12:09:09;20.05;;;12.57;;
85955;SDS011;76522;51.420;5.386;2024-02-28T12:11:39;23.13;;;14.30;;
85955;SDS011;76522;51.420;5.386;2024-02-28T12:14:06;26.15;;;15.85;;
85955;SDS011;76522;51.420;5.386;2024-02-28T12:16:34;24.33;;;14.82;;
85955;SDS011;76522;51.420;5.386;2024-02-28T12:19:03;28.23;;;14.75;;
85955;SDS011;76522;51.420;5.386;2024-02-28T12:21:32;23.33;;;13.48;;
85955;SDS011;76522;51.420;5.386;2024-02-28T12:23:58;25.38;;;15.73;;
85955;SDS011;76522;51.420;5.386;2024-02-28T12:26:24;25.30;;;13.27;;
85955;SDS011;76522;51.420;5.386;2024-02-28T12:28:50;30.70;;;15.63;;
85955;SDS011;76522;51.420;5.386;2024-02-28T12:31:15;17.17;;;9.95;;
85955;SDS011;76522;51.420;5.386;2024-02-28T12:33:41;21.75;;;12.52;;
85955;SDS011;76522;51.420;5.386;2024-02-28T12:36:07;23.17;;;14.10;;
85955;SDS011;76522;51.420;5.386;2024-02-28T12:38:33;23.98;;;14.07;;
85955;SDS011;76522;51.420;5.386;2024-02-28T12:40:59;22.67;;;12.48;;
85955;SDS011;76522;51.420;5.386;2024-02-28T12:43:25;24.20;;;12.68;;
85955;SDS011;76522;51.420;5.386;2024-02-28T12:45:51;21.58;;;14.23;;
85955;SDS011;76522;51.420;5.386;2024-02-28T12:48:16;26.10;;;14.23;;
85955;SDS011;76522;51.420;5.386;2024-02-28T12:50:42;21.00;;;12.32;;
85955;SDS011;76522;51.420;5.386;2024-02-28T12:53:08;27.63;;;14.43;;
85955;SDS011;76522;51.420;5.386;2024-02-28T12:55:33;26.00;;;14.10;;
85955;SDS011;76522;51.420;5.386;2024-02-28T12:57:59;22.30;;;13.43;;
85955;SDS011;76522;51.420;5.386;2024-02-28T13:00:29;21.02;;;13.57;;
85955;SDS011;76522;51.420;5.386;2024-02-28T13:02:55;22.10;;;14.05;;
85955;SDS011;76522;51.420;5.386;2024-02-28T13:05:20;21.17;;;11.85;;
85955;SDS011;76522;51.420;5.386;2024-02-28T13:07:46;16.83;;;8.13;;
85955;SDS011;76522;51.420;5.386;2024-02-28T13:10:12;21.17;;;11.10;;
85955;SDS011;76522;51.420;5.386;2024-02-28T13:12:38;17.77;;;10.30;;
85955;SDS011;76522;51.420;5.386;2024-02-28T13:15:04;19.00;;;10.32;;
85955;SDS011;76522;51.420;5.386;2024-02-28T13:17:33;29.40;;;12.38;;
85955;SDS011;76522;51.420;5.386;2024-02-28T13:20:01;20.70;;;11.15;;
85955;SDS011;76522;51.420;5.386;2024-02-28T13:22:28;22.10;;;12.30;;
85955;SDS011;76522;51.420;5.386;2024-02-28T13:24:54;20.35;;;11.85;;
85955;SDS011;76522;51.420;5.386;2024-02-28T13:27:20;20.70;;;12.85;;
85955;SDS011;76522;51.420;5.386;2024-02-28T13:29:46;15.82;;;10.00;;
85955;SDS011;76522;51.420;5.386;2024-02-28T13:32:11;18.27;;;10.23;;
85955;SDS011;76522;51.420;5.386;2024-02-28T13:34:39;20.02;;;12.35;;
85955;SDS011;76522;51.420;5.386;2024-02-28T13:37:05;20.30;;;11.55;;
85955;SDS011;76522;51.420;5.386;2024-02-28T13:39:30;22.33;;;12.02;;
85955;SDS011;76522;51.420;5.386;2024-02-28T13:41:56;19.95;;;12.23;;
85955;SDS011;76522;51.420;5.386;2024-02-28T13:44:22;20.90;;;12.88;;
85955;SDS011;76522;51.420;5.386;2024-02-28T13:46:49;19.58;;;11.93;;
85955;SDS011;76522;51.420;5.386;2024-02-28T13:49:16;18.10;;;11.70;;
85955;SDS011;76522;51.420;5.386;2024-02-28T13:51:44;18.55;;;13.57;;
85955;SDS011;76522;51.420;5.386;2024-02-28T13:54:10;20.33;;;11.13;;
85955;SDS011;76522;51.420;5.386;2024-02-28T13:56:36;22.08;;;12.70;;
85955;SDS011;76522;51.420;5.386;2024-02-28T13:59:02;18.95;;;11.20;;
85955;SDS011;76522;51.420;5.386;2024-02-28T14:01:28;16.42;;;10.30;;
85955;SDS011;76522;51.420;5.386;2024-02-28T14:03:54;16.50;;;10.75;;
85955;SDS011;76522;51.420;5.386;2024-02-28T14:06:19;20.42;;;12.57;;
85955;SDS011;76522;51.420;5.386;2024-02-28T14:08:45;18.25;;;12.73;;
85955;SDS011;76522;51.420;5.386;2024-02-28T14:11:11;19.90;;;12.45;;
85955;SDS011;76522;51.420;5.386;2024-02-28T14:13:37;18.67;;;13.10;;
85955;SDS011;76522;51.420;5.386;2024-02-28T14:16:04;20.77;;;13.85;;